PWSweather.com
Personal Weather Stations
Station Observations
NAGEO265NE
Bedzin GrodziecPL 42-506

Bedzin GrodziecPL 42-506

Lat: 50.347, Lon: 19.079

Elevation: 948

Station Type: WH1080

http://www.meteo-grodziec.pl/

Latest ConditionsUpdated 9:10:02 PM GMT+01:01 Monday, Sep 24, 2018
Currently Today's Max Today's Min Today's Average
Temperature 44.2°F6.8°C 58.3°F14.6°C 44.2°F6.8°C 49.5°F9.7°C
Dew Point 38.8°F3.8°C 56.3°F13.5°C 37.9°F3.3°C 43.3°F6.3°C
Winds 3.0 mph NW4.8 kmh NW 11.0 mph -17.7 kmh - - 5.3 mph 8.5 kmh
Wind Gusts 8.0 mph12.9 kmh 35.0 mph56.3 kmh - -
Humidity 81% 94% 57% 80%
Pressure 30.27 in1025.1 mb 30.27 in1025.1 mb 29.51 in999.3 mb -
Precipitation - 0.17 in4.3 mm - -
Hour Temp Dew Point Humidity Winds Wind Gusts Pressure Precip Precip Rate Daily Precip Total
09:10 PM 44.2°F6.8°C 38.8°F3.8°C 81% 3.0 mph NW4.8 kmh NW 8.0 mph12.9 kmh 30.27 in1025.1 mb 0.00 in0.0 mm 0.00 in0.0 mm 0.17 in4.3 mm
09:05 PM 44.4°F6.9°C 39.0°F3.9°C 81% 2.0 mph NW3.2 kmh NW 8.0 mph12.9 kmh 30.27 in1025.1 mb 0.00 in0.0 mm 0.00 in0.0 mm 0.17 in4.3 mm
09:00 PM 44.4°F6.9°C 39.0°F3.9°C 81% 2.0 mph NW3.2 kmh NW 8.0 mph12.9 kmh 30.26 in1024.7 mb 0.00 in0.0 mm 0.00 in0.0 mm 0.17 in4.3 mm
08:55 PM 44.6°F7.0°C 39.2°F4.0°C 81% 3.0 mph NW4.8 kmh NW 12.0 mph19.3 kmh 30.26 in1024.7 mb 0.00 in0.0 mm 0.00 in0.0 mm 0.17 in4.3 mm
08:50 PM 44.8°F7.1°C 39.4°F4.1°C 81% 3.0 mph NW4.8 kmh NW 12.0 mph19.3 kmh 30.26 in1024.7 mb 0.00 in0.0 mm 0.00 in0.0 mm 0.17 in4.3 mm
08:45 PM 45.0°F7.2°C 39.0°F3.9°C 80% 6.0 mph NW9.7 kmh NW 18.0 mph29.0 kmh 30.26 in1024.7 mb 0.00 in0.0 mm 0.00 in0.0 mm 0.17 in4.3 mm
08:40 PM 45.1°F7.3°C 39.0°F3.9°C 79% 8.0 mph NW12.9 kmh NW 21.0 mph33.8 kmh 30.26 in1024.7 mb 0.00 in0.0 mm 0.00 in0.0 mm 0.17 in4.3 mm
08:35 PM 45.3°F7.4°C 39.6°F4.2°C 80% 6.0 mph NW9.7 kmh NW 21.0 mph33.8 kmh 30.26 in1024.7 mb 0.00 in0.0 mm 0.00 in0.0 mm 0.17 in4.3 mm
08:30 PM 45.3°F7.4°C 39.6°F4.2°C 80% 3.0 mph NW4.8 kmh NW 10.0 mph16.1 kmh 30.26 in1024.7 mb 0.00 in0.0 mm 0.00 in0.0 mm 0.17 in4.3 mm
08:25 PM 45.1°F7.3°C 39.4°F4.1°C 80% 2.0 mph NW3.2 kmh NW 7.0 mph11.3 kmh 30.26 in1024.7 mb 0.00 in0.0 mm 0.00 in0.0 mm 0.17 in4.3 mm
08:20 PM 45.0°F7.2°C 39.6°F4.2°C 81% 2.0 mph NW3.2 kmh NW 7.0 mph11.3 kmh 30.26 in1024.7 mb 0.00 in0.0 mm 0.00 in0.0 mm 0.17 in4.3 mm
08:15 PM 44.8°F7.1°C 39.4°F4.1°C 81% 3.0 mph NW4.8 kmh NW 8.0 mph12.9 kmh 30.25 in1024.4 mb 0.00 in0.0 mm 0.00 in0.0 mm 0.17 in4.3 mm
08:10 PM 44.6°F7.0°C 39.2°F4.0°C 81% 3.0 mph NW4.8 kmh NW 11.0 mph17.7 kmh 30.25 in1024.4 mb 0.00 in0.0 mm 0.00 in0.0 mm 0.17 in4.3 mm
08:05 PM 44.4°F6.9°C 39.0°F3.9°C 81% 3.0 mph NW4.8 kmh NW 14.0 mph22.5 kmh 30.25 in1024.4 mb 0.00 in0.0 mm 0.00 in0.0 mm 0.17 in4.3 mm
08:00 PM 44.4°F6.9°C 39.0°F3.9°C 81% 3.0 mph NW4.8 kmh NW 14.0 mph22.5 kmh 30.25 in1024.4 mb 0.00 in0.0 mm 0.00 in0.0 mm 0.17 in4.3 mm
07:55 PM 44.4°F6.9°C 39.0°F3.9°C 81% 2.0 mph NW3.2 kmh NW 8.0 mph12.9 kmh 30.24 in1024.0 mb 0.00 in0.0 mm 0.00 in0.0 mm 0.17 in4.3 mm
07:50 PM 44.4°F6.9°C 39.0°F3.9°C 81% 2.0 mph NW3.2 kmh NW 12.0 mph19.3 kmh 30.24 in1024.0 mb 0.00 in0.0 mm 0.00 in0.0 mm 0.17 in4.3 mm
07:45 PM 44.6°F7.0°C 39.2°F4.0°C 81% 3.0 mph NW4.8 kmh NW 12.0 mph19.3 kmh 30.24 in1024.0 mb 0.00 in0.0 mm 0.00 in0.0 mm 0.17 in4.3 mm
07:40 PM 44.6°F7.0°C 39.2°F4.0°C 81% 2.0 mph NW3.2 kmh NW 8.0 mph12.9 kmh 30.24 in1024.0 mb 0.00 in0.0 mm 0.00 in0.0 mm 0.17 in4.3 mm
07:35 PM 44.8°F7.1°C 39.4°F4.1°C 81% 2.0 mph NW3.2 kmh NW 8.0 mph12.9 kmh 30.23 in1023.7 mb 0.00 in0.0 mm 0.00 in0.0 mm 0.17 in4.3 mm
07:30 PM 45.0°F7.2°C 39.0°F3.9°C 80% 2.0 mph NW3.2 kmh NW 8.0 mph12.9 kmh 30.23 in1023.7 mb 0.00 in0.0 mm 0.00 in0.0 mm 0.17 in4.3 mm
07:25 PM 45.0°F7.2°C 39.0°F3.9°C 80% 2.0 mph NW3.2 kmh NW 8.0 mph12.9 kmh 30.23 in1023.7 mb 0.00 in0.0 mm 0.00 in0.0 mm 0.17 in4.3 mm
07:20 PM 45.0°F7.2°C 39.2°F4.0°C 80% 2.0 mph NW3.2 kmh NW 6.0 mph9.7 kmh 30.23 in1023.7 mb 0.00 in0.0 mm 0.00 in0.0 mm 0.17 in4.3 mm
07:15 PM 45.1°F7.3°C 39.0°F3.9°C 79% 2.0 mph NW3.2 kmh NW 8.0 mph12.9 kmh 30.23 in1023.7 mb 0.00 in0.0 mm 0.00 in0.0 mm 0.17 in4.3 mm
07:10 PM 45.1°F7.3°C 39.0°F3.9°C 79% 2.0 mph NW3.2 kmh NW 8.0 mph12.9 kmh 30.22 in1023.4 mb 0.00 in0.0 mm 0.00 in0.0 mm 0.17 in4.3 mm
07:05 PM 45.1°F7.3°C 39.0°F3.9°C 79% 3.0 mph NW4.8 kmh NW 9.0 mph14.5 kmh 30.22 in1023.4 mb 0.00 in0.0 mm 0.00 in0.0 mm 0.17 in4.3 mm
07:00 PM 45.3°F7.4°C 38.8°F3.8°C 78% 3.0 mph NW4.8 kmh NW 10.0 mph16.1 kmh 30.22 in1023.4 mb 0.00 in0.0 mm 0.00 in0.0 mm 0.17 in4.3 mm
06:55 PM 45.3°F7.4°C 38.8°F3.8°C 78% 3.0 mph NW4.8 kmh NW 10.0 mph16.1 kmh 30.22 in1023.4 mb 0.00 in0.0 mm 0.00 in0.0 mm 0.17 in4.3 mm
06:50 PM 45.3°F7.4°C 39.0°F3.9°C 78% 2.0 mph NW3.2 kmh NW 8.0 mph12.9 kmh 30.21 in1023.0 mb 0.00 in0.0 mm 0.00 in0.0 mm 0.17 in4.3 mm
06:45 PM 45.5°F7.5°C 38.7°F3.7°C 77% 2.0 mph NW3.2 kmh NW 8.0 mph12.9 kmh 30.21 in1023.0 mb 0.00 in0.0 mm 0.00 in0.0 mm 0.17 in4.3 mm
06:40 PM 45.7°F7.6°C 38.8°F3.8°C 77% 2.0 mph NW3.2 kmh NW 11.0 mph17.7 kmh 30.21 in1023.0 mb 0.00 in0.0 mm 0.00 in0.0 mm 0.17 in4.3 mm
06:35 PM 45.9°F7.7°C 38.8°F3.8°C 76% 3.0 mph NW4.8 kmh NW 13.0 mph20.9 kmh 30.21 in1023.0 mb 0.00 in0.0 mm 0.00 in0.0 mm 0.17 in4.3 mm
06:30 PM 46.0°F7.8°C 39.0°F3.9°C 76% 4.0 mph NW6.4 kmh NW 13.0 mph20.9 kmh 30.20 in1022.7 mb 0.00 in0.0 mm 0.00 in0.0 mm 0.17 in4.3 mm
06:25 PM 46.2°F7.9°C 38.7°F3.7°C 75% 4.0 mph NW6.4 kmh NW 13.0 mph20.9 kmh 30.20 in1022.7 mb 0.00 in0.0 mm 0.00 in0.0 mm 0.17 in4.3 mm
06:20 PM 46.4°F8.0°C 38.8°F3.8°C 75% 5.0 mph NW8.0 kmh NW 17.0 mph27.4 kmh 30.20 in1022.7 mb 0.00 in0.0 mm 0.00 in0.0 mm 0.17 in4.3 mm
06:15 PM 46.6°F8.1°C 39.0°F3.9°C 75% 5.0 mph NW8.0 kmh NW 17.0 mph27.4 kmh 30.20 in1022.7 mb 0.00 in0.0 mm 0.00 in0.0 mm 0.17 in4.3 mm
06:10 PM 46.6°F8.1°C 39.0°F3.9°C 75% 4.0 mph NW6.4 kmh NW 12.0 mph19.3 kmh 30.19 in1022.4 mb 0.00 in0.0 mm 0.00 in0.0 mm 0.17 in4.3 mm
06:05 PM 46.8°F8.2°C 39.2°F4.0°C 75% 3.0 mph NW4.8 kmh NW 10.0 mph16.1 kmh 30.19 in1022.4 mb 0.00 in0.0 mm 0.00 in0.0 mm 0.17 in4.3 mm
06:00 PM 46.8°F8.2°C 39.4°F4.1°C 75% 4.0 mph NW6.4 kmh NW 16.0 mph25.7 kmh 30.18 in1022.0 mb 0.00 in0.0 mm 0.00 in0.0 mm 0.17 in4.3 mm
05:55 PM 47.1°F8.4°C 39.2°F4.0°C 74% 4.0 mph NW6.4 kmh NW 16.0 mph25.7 kmh 30.18 in1022.0 mb 0.00 in0.0 mm 0.00 in0.0 mm 0.17 in4.3 mm
05:50 PM 47.3°F8.5°C 39.4°F4.1°C 74% 5.0 mph NW8.0 kmh NW 14.0 mph22.5 kmh 30.18 in1022.0 mb 0.00 in0.0 mm 0.00 in0.0 mm 0.17 in4.3 mm
05:45 PM 47.7°F8.7°C 39.7°F4.3°C 74% 5.0 mph NW8.0 kmh NW 14.0 mph22.5 kmh 30.18 in1022.0 mb 0.00 in0.0 mm 0.00 in0.0 mm 0.17 in4.3 mm
05:40 PM 47.8°F8.8°C 39.6°F4.2°C 73% 4.0 mph NW6.4 kmh NW 11.0 mph17.7 kmh 30.18 in1022.0 mb 0.00 in0.0 mm 0.00 in0.0 mm 0.17 in4.3 mm
05:35 PM 48.0°F8.9°C 39.6°F4.2°C 72% 5.0 mph NW8.0 kmh NW 20.0 mph32.2 kmh 30.17 in1021.7 mb 0.00 in0.0 mm 0.00 in0.0 mm 0.17 in4.3 mm
05:30 PM 48.6°F9.2°C 39.6°F4.2°C 71% 8.0 mph NW12.9 kmh NW 24.0 mph38.6 kmh 30.17 in1021.7 mb 0.00 in0.0 mm 0.00 in0.0 mm 0.17 in4.3 mm
05:25 PM 49.3°F9.6°C 40.3°F4.6°C 71% 11.0 mph NW17.7 kmh NW 35.0 mph56.3 kmh 30.17 in1021.7 mb 0.00 in0.0 mm 0.00 in0.0 mm 0.17 in4.3 mm
05:20 PM 51.1°F10.6°C 39.0°F3.9°C 63% 9.0 mph NW14.5 kmh NW 35.0 mph56.3 kmh 30.17 in1021.7 mb 0.00 in0.0 mm 0.00 in0.0 mm 0.17 in4.3 mm
05:15 PM 52.0°F11.1°C 37.9°F3.3°C 59% 5.0 mph NW8.0 kmh NW 18.0 mph29.0 kmh 30.15 in1021.0 mb 0.00 in0.0 mm 0.00 in0.0 mm 0.17 in4.3 mm
05:10 PM 52.2°F11.2°C 38.1°F3.4°C 59% 6.0 mph NW9.7 kmh NW 17.0 mph27.4 kmh 30.14 in1020.7 mb 0.00 in0.0 mm 0.00 in0.0 mm 0.17 in4.3 mm
05:05 PM 52.2°F11.2°C 38.7°F3.7°C 60% 6.0 mph NW9.7 kmh NW 17.0 mph27.4 kmh 30.14 in1020.7 mb 0.00 in0.0 mm 0.00 in0.0 mm 0.17 in4.3 mm
05:00 PM 52.2°F11.2°C 39.9°F4.4°C 63% 4.0 mph NW6.4 kmh NW 18.0 mph29.0 kmh 30.14 in1020.7 mb 0.00 in0.0 mm 0.00 in0.0 mm 0.17 in4.3 mm
04:55 PM 52.5°F11.4°C 39.9°F4.4°C 62% 3.0 mph WNW4.8 kmh WNW 18.0 mph29.0 kmh 30.14 in1020.7 mb 0.00 in0.0 mm 0.00 in0.0 mm 0.17 in4.3 mm
04:50 PM 52.5°F11.4°C 40.3°F4.6°C 63% 4.0 mph WNW6.4 kmh WNW 16.0 mph25.7 kmh 30.14 in1020.7 mb 0.00 in0.0 mm 0.00 in0.0 mm 0.17 in4.3 mm
04:45 PM 52.5°F11.4°C 40.6°F4.8°C 64% 4.0 mph NW6.4 kmh NW 16.0 mph25.7 kmh 30.13 in1020.3 mb 0.00 in0.0 mm 0.00 in0.0 mm 0.17 in4.3 mm
04:40 PM 52.5°F11.4°C 40.3°F4.6°C 63% 4.0 mph NW6.4 kmh NW 16.0 mph25.7 kmh 30.13 in1020.3 mb 0.00 in0.0 mm 0.00 in0.0 mm 0.17 in4.3 mm
04:35 PM 52.3°F11.3°C 40.1°F4.5°C 63% 6.0 mph NW9.7 kmh NW 16.0 mph25.7 kmh 30.13 in1020.3 mb 0.00 in0.0 mm 0.00 in0.0 mm 0.17 in4.3 mm
04:30 PM 52.2°F11.2°C 39.6°F4.2°C 62% 5.0 mph NW8.0 kmh NW 16.0 mph25.7 kmh 30.13 in1020.3 mb 0.00 in0.0 mm 0.00 in0.0 mm 0.17 in4.3 mm
04:25 PM 52.5°F11.4°C 39.9°F4.4°C 62% 4.0 mph NW6.4 kmh NW 14.0 mph22.5 kmh 30.13 in1020.3 mb 0.00 in0.0 mm 0.00 in0.0 mm 0.17 in4.3 mm
04:20 PM 53.1°F11.7°C 39.9°F4.4°C 61% 5.0 mph NW8.0 kmh NW 13.0 mph20.9 kmh 30.13 in1020.3 mb 0.00 in0.0 mm 0.00 in0.0 mm 0.17 in4.3 mm
04:15 PM 53.2°F11.8°C 40.1°F4.5°C 61% 5.0 mph NW8.0 kmh NW 15.0 mph24.1 kmh 30.13 in1020.3 mb 0.00 in0.0 mm 0.00 in0.0 mm 0.17 in4.3 mm
04:10 PM 53.2°F11.8°C 39.7°F4.3°C 60% 6.0 mph NW9.7 kmh NW 16.0 mph25.7 kmh 30.12 in1020.0 mb 0.00 in0.0 mm 0.00 in0.0 mm 0.17 in4.3 mm
04:05 PM 53.1°F11.7°C 39.6°F4.2°C 60% 6.0 mph NW9.7 kmh NW 17.0 mph27.4 kmh 30.12 in1020.0 mb 0.00 in0.0 mm 0.00 in0.0 mm 0.17 in4.3 mm
04:00 PM 53.4°F11.9°C 39.0°F3.9°C 58% 6.0 mph NW9.7 kmh NW 17.0 mph27.4 kmh 30.12 in1020.0 mb 0.00 in0.0 mm 0.00 in0.0 mm 0.17 in4.3 mm
03:55 PM 53.8°F12.1°C 39.4°F4.1°C 58% 7.0 mph NW11.3 kmh NW 21.0 mph33.8 kmh 30.12 in1020.0 mb 0.00 in0.0 mm 0.00 in0.0 mm 0.17 in4.3 mm
03:50 PM 54.0°F12.2°C 39.0°F3.9°C 57% 6.0 mph NW9.7 kmh NW 21.0 mph33.8 kmh 30.11 in1019.6 mb 0.00 in0.0 mm 0.00 in0.0 mm 0.17 in4.3 mm
03:45 PM 54.1°F12.3°C 39.7°F4.3°C 58% 6.0 mph NW9.7 kmh NW 17.0 mph27.4 kmh 30.12 in1020.0 mb 0.00 in0.0 mm 0.00 in0.0 mm 0.17 in4.3 mm
03:40 PM 54.3°F12.4°C 41.2°F5.1°C 61% 5.0 mph NW8.0 kmh NW 14.0 mph22.5 kmh 30.11 in1019.6 mb 0.00 in0.0 mm 0.00 in0.0 mm 0.17 in4.3 mm
03:35 PM 54.3°F12.4°C 41.2°F5.1°C 61% 5.0 mph NW8.0 kmh NW 14.0 mph22.5 kmh 30.11 in1019.6 mb 0.00 in0.0 mm 0.00 in0.0 mm 0.17 in4.3 mm
03:30 PM 54.3°F12.4°C 41.2°F5.1°C 61% 6.0 mph NW9.7 kmh NW 15.0 mph24.1 kmh 30.11 in1019.6 mb 0.00 in0.0 mm 0.00 in0.0 mm 0.17 in4.3 mm
03:25 PM 54.5°F12.5°C 41.4°F5.2°C 61% 5.0 mph NW8.0 kmh NW 18.0 mph29.0 kmh 30.12 in1020.0 mb 0.00 in0.0 mm 0.00 in0.0 mm 0.17 in4.3 mm
03:20 PM 54.7°F12.6°C 41.4°F5.2°C 61% 6.0 mph NW9.7 kmh NW 20.0 mph32.2 kmh 30.12 in1020.0 mb 0.00 in0.0 mm 0.00 in0.0 mm 0.17 in4.3 mm
03:15 PM 54.5°F12.5°C 40.8°F4.9°C 60% 6.0 mph NW9.7 kmh NW 20.0 mph32.2 kmh 30.11 in1019.6 mb 0.00 in0.0 mm 0.00 in0.0 mm 0.17 in4.3 mm
03:10 PM 54.3°F12.4°C 41.2°F5.1°C 61% 6.0 mph NW9.7 kmh NW 18.0 mph29.0 kmh 30.11 in1019.6 mb 0.00 in0.0 mm 0.00 in0.0 mm 0.17 in4.3 mm
03:05 PM 54.0°F12.2°C 41.7°F5.4°C 63% 6.0 mph NW9.7 kmh NW 18.0 mph29.0 kmh 30.11 in1019.6 mb 0.00 in0.0 mm 0.00 in0.0 mm 0.17 in4.3 mm
03:00 PM 53.8°F12.1°C 41.0°F5.0°C 62% 5.0 mph NW8.0 kmh NW 21.0 mph33.8 kmh 30.12 in1020.0 mb 0.00 in0.0 mm 0.00 in0.0 mm 0.17 in4.3 mm
02:55 PM 53.2°F11.8°C 41.0°F5.0°C 63% 5.0 mph NW8.0 kmh NW 21.0 mph33.8 kmh 30.12 in1020.0 mb 0.00 in0.0 mm 0.00 in0.0 mm 0.17 in4.3 mm
02:50 PM 52.5°F11.4°C 41.9°F5.5°C 67% 5.0 mph NW8.0 kmh NW 16.0 mph25.7 kmh 30.11 in1019.6 mb 0.00 in0.0 mm 0.00 in0.0 mm 0.17 in4.3 mm
02:45 PM 51.8°F11.0°C 42.3°F5.7°C 70% 6.0 mph NW9.7 kmh NW 24.0 mph38.6 kmh 30.11 in1019.6 mb 0.00 in0.0 mm 0.00 in0.0 mm 0.17 in4.3 mm
02:40 PM 51.6°F10.9°C 42.4°F5.8°C 71% 6.0 mph NW9.7 kmh NW 24.0 mph38.6 kmh 30.12 in1020.0 mb 0.00 in0.0 mm 0.00 in0.0 mm 0.17 in4.3 mm
02:35 PM 52.5°F11.4°C 41.2°F5.1°C 65% 6.0 mph WNW9.7 kmh WNW 18.0 mph29.0 kmh 30.12 in1020.0 mb 0.00 in0.0 mm 0.00 in0.0 mm 0.17 in4.3 mm
02:30 PM 53.4°F11.9°C 40.6°F4.8°C 62% 6.0 mph WNW9.7 kmh WNW 19.0 mph30.6 kmh 30.12 in1020.0 mb 0.00 in0.0 mm 0.00 in0.0 mm 0.17 in4.3 mm
02:25 PM 53.8°F12.1°C 41.0°F5.0°C 62% 7.0 mph NW11.3 kmh NW 21.0 mph33.8 kmh 30.12 in1020.0 mb 0.00 in0.0 mm 0.00 in0.0 mm 0.17 in4.3 mm
02:20 PM 53.2°F11.8°C 40.1°F4.5°C 61% 7.0 mph NW11.3 kmh NW 21.0 mph33.8 kmh 30.12 in1020.0 mb 0.00 in0.0 mm 0.00 in0.0 mm 0.17 in4.3 mm
02:15 PM 52.7°F11.5°C 40.8°F4.9°C 64% 5.0 mph NW8.0 kmh NW 21.0 mph33.8 kmh 30.12 in1020.0 mb 0.00 in0.0 mm 0.00 in0.0 mm 0.17 in4.3 mm
02:10 PM 52.0°F11.1°C 41.0°F5.0°C 66% 6.0 mph NW9.7 kmh NW 21.0 mph33.8 kmh 30.12 in1020.0 mb 0.00 in0.0 mm 0.00 in0.0 mm 0.17 in4.3 mm
02:05 PM 52.0°F11.1°C 41.7°F5.4°C 68% 5.0 mph NW8.0 kmh NW 16.0 mph25.7 kmh 30.12 in1020.0 mb 0.00 in0.0 mm 0.00 in0.0 mm 0.17 in4.3 mm
02:00 PM 52.5°F11.4°C 42.3°F5.7°C 68% 4.0 mph NW6.4 kmh NW 15.0 mph24.1 kmh 30.12 in1020.0 mb 0.00 in0.0 mm 0.00 in0.0 mm 0.17 in4.3 mm
01:55 PM 52.9°F11.6°C 44.1°F6.7°C 72% 4.0 mph NW6.4 kmh NW 14.0 mph22.5 kmh 30.12 in1020.0 mb 0.00 in0.0 mm 0.00 in0.0 mm 0.17 in4.3 mm
01:50 PM 52.0°F11.1°C 43.7°F6.5°C 73% 5.0 mph NW8.0 kmh NW 14.0 mph22.5 kmh 30.12 in1020.0 mb 0.00 in0.0 mm 0.00 in0.0 mm 0.17 in4.3 mm
01:45 PM 51.4°F10.8°C 42.6°F5.9°C 72% 4.0 mph NW6.4 kmh NW 11.0 mph17.7 kmh 30.11 in1019.6 mb 0.00 in0.0 mm 0.00 in0.0 mm 0.17 in4.3 mm
01:40 PM 50.9°F10.5°C 43.3°F6.3°C 75% 4.0 mph WNW6.4 kmh WNW 12.0 mph19.3 kmh 30.12 in1020.0 mb 0.00 in0.0 mm 0.00 in0.0 mm 0.17 in4.3 mm
01:35 PM 49.8°F9.9°C 42.6°F5.9°C 76% 4.0 mph WNW6.4 kmh WNW 12.0 mph19.3 kmh 30.12 in1020.0 mb 0.00 in0.0 mm 0.00 in0.0 mm 0.17 in4.3 mm
01:30 PM 49.5°F9.7°C 42.1°F5.6°C 76% 5.0 mph WNW8.0 kmh WNW 19.0 mph30.6 kmh 30.12 in1020.0 mb 0.00 in0.0 mm 0.00 in0.0 mm 0.17 in4.3 mm
01:25 PM 50.0°F10.0°C 42.8°F6.0°C 76% 6.0 mph WNW9.7 kmh WNW 19.0 mph30.6 kmh 30.12 in1020.0 mb 0.00 in0.0 mm 0.00 in0.0 mm 0.17 in4.3 mm
01:20 PM 50.5°F10.3°C 42.6°F5.9°C 74% 6.0 mph NW9.7 kmh NW 19.0 mph30.6 kmh 30.12 in1020.0 mb 0.00 in0.0 mm 0.00 in0.0 mm 0.17 in4.3 mm
01:15 PM 49.8°F9.9°C 41.9°F5.5°C 74% 5.0 mph NW8.0 kmh NW 15.0 mph24.1 kmh 30.11 in1019.6 mb 0.00 in0.0 mm 0.00 in0.0 mm 0.17 in4.3 mm
01:10 PM 48.7°F9.3°C 42.4°F5.8°C 79% 4.0 mph NW6.4 kmh NW 15.0 mph24.1 kmh 30.11 in1019.6 mb 0.00 in0.0 mm 0.00 in0.0 mm 0.17 in4.3 mm
01:05 PM 47.8°F8.8°C 41.9°F5.5°C 80% 5.0 mph NW8.0 kmh NW 19.0 mph30.6 kmh 30.11 in1019.6 mb 0.00 in0.0 mm 0.00 in0.0 mm 0.17 in4.3 mm
01:00 PM 47.8°F8.8°C 42.3°F5.7°C 81% 8.0 mph NW12.9 kmh NW 24.0 mph38.6 kmh 30.11 in1019.6 mb 0.00 in0.0 mm 0.00 in0.0 mm 0.17 in4.3 mm
12:55 PM 49.1°F9.5°C 42.6°F5.9°C 78% 9.0 mph NW14.5 kmh NW 24.0 mph38.6 kmh 30.13 in1020.3 mb 0.00 in0.0 mm 0.00 in0.0 mm 0.17 in4.3 mm
12:50 PM 51.6°F10.9°C 42.1°F5.6°C 70% 6.0 mph NW9.7 kmh NW 22.0 mph35.4 kmh 30.12 in1020.0 mb 0.00 in0.0 mm 0.00 in0.0 mm 0.17 in4.3 mm
12:45 PM 51.6°F10.9°C 42.8°F6.0°C 72% 5.0 mph NW8.0 kmh NW 15.0 mph24.1 kmh 30.10 in1019.3 mb 0.00 in0.0 mm 0.00 in0.0 mm 0.17 in4.3 mm
12:40 PM 50.9°F10.5°C 42.6°F5.9°C 73% 5.0 mph NW8.0 kmh NW 15.0 mph24.1 kmh 30.11 in1019.6 mb 0.00 in0.0 mm 0.00 in0.0 mm 0.17 in4.3 mm
12:35 PM 50.4°F10.2°C 41.9°F5.5°C 73% 5.0 mph NW8.0 kmh NW 19.0 mph30.6 kmh 30.11 in1019.6 mb 0.00 in0.0 mm 0.00 in0.0 mm 0.17 in4.3 mm
12:30 PM 49.6°F9.8°C 42.1°F5.6°C 75% 4.0 mph NW6.4 kmh NW 19.0 mph30.6 kmh 30.11 in1019.6 mb 0.00 in0.0 mm 0.00 in0.0 mm 0.17 in4.3 mm
12:25 PM 49.3°F9.6°C 42.1°F5.6°C 76% 6.0 mph NW9.7 kmh NW 23.0 mph37.0 kmh 30.11 in1019.6 mb 0.00 in0.0 mm 0.00 in0.0 mm 0.17 in4.3 mm
12:20 PM 49.3°F9.6°C 41.5°F5.3°C 75% 7.0 mph NW11.3 kmh NW 23.0 mph37.0 kmh 30.11 in1019.6 mb 0.00 in0.0 mm 0.00 in0.0 mm 0.17 in4.3 mm
12:15 PM 49.6°F9.8°C 43.0°F6.1°C 78% 7.0 mph NW11.3 kmh NW 20.0 mph32.2 kmh 30.11 in1019.6 mb 0.00 in0.0 mm 0.00 in0.0 mm 0.17 in4.3 mm
12:10 PM 49.8°F9.9°C 42.6°F5.9°C 76% 7.0 mph NW11.3 kmh NW 20.0 mph32.2 kmh 30.10 in1019.3 mb 0.00 in0.0 mm 0.00 in0.0 mm 0.17 in4.3 mm
12:05 PM 51.1°F10.6°C 42.6°F5.9°C 73% 6.0 mph NW9.7 kmh NW 18.0 mph29.0 kmh 30.10 in1019.3 mb 0.00 in0.0 mm 0.00 in0.0 mm 0.17 in4.3 mm
12:00 PM 52.2°F11.2°C 43.0°F6.1°C 71% 4.0 mph WNW6.4 kmh WNW 18.0 mph29.0 kmh 30.10 in1019.3 mb 0.00 in0.0 mm 0.00 in0.0 mm 0.17 in4.3 mm
11:55 AM 52.0°F11.1°C 42.4°F5.8°C 70% 4.0 mph NW6.4 kmh NW 13.0 mph20.9 kmh 30.10 in1019.3 mb 0.00 in0.0 mm 0.00 in0.0 mm 0.17 in4.3 mm
11:50 AM 52.0°F11.1°C 42.1°F5.6°C 69% 5.0 mph NW8.0 kmh NW 13.0 mph20.9 kmh 30.09 in1019.0 mb 0.00 in0.0 mm 0.00 in0.0 mm 0.17 in4.3 mm
11:45 AM 51.8°F11.0°C 42.3°F5.7°C 70% 5.0 mph NW8.0 kmh NW 13.0 mph20.9 kmh 30.10 in1019.3 mb 0.00 in0.0 mm 0.00 in0.0 mm 0.17 in4.3 mm
11:40 AM 51.8°F11.0°C 42.3°F5.7°C 70% 4.0 mph NW6.4 kmh NW 15.0 mph24.1 kmh 30.10 in1019.3 mb 0.00 in0.0 mm 0.00 in0.0 mm 0.17 in4.3 mm
11:35 AM 52.0°F11.1°C 42.1°F5.6°C 69% 6.0 mph NW9.7 kmh NW 16.0 mph25.7 kmh 30.10 in1019.3 mb 0.00 in0.0 mm 0.00 in0.0 mm 0.17 in4.3 mm
11:30 AM 52.0°F11.1°C 41.7°F5.4°C 68% 7.0 mph NW11.3 kmh NW 18.0 mph29.0 kmh 30.09 in1019.0 mb 0.00 in0.0 mm 0.00 in0.0 mm 0.17 in4.3 mm
11:25 AM 52.2°F11.2°C 41.0°F5.0°C 66% 7.0 mph NW11.3 kmh NW 19.0 mph30.6 kmh 30.09 in1019.0 mb 0.00 in0.0 mm 0.00 in0.0 mm 0.17 in4.3 mm
11:20 AM 52.0°F11.1°C 41.7°F5.4°C 68% 6.0 mph NW9.7 kmh NW 19.0 mph30.6 kmh 30.09 in1019.0 mb 0.00 in0.0 mm 0.00 in0.0 mm 0.17 in4.3 mm
11:15 AM 51.8°F11.0°C 41.2°F5.1°C 67% 5.0 mph NW8.0 kmh NW 15.0 mph24.1 kmh 30.09 in1019.0 mb 0.00 in0.0 mm 0.00 in0.0 mm 0.17 in4.3 mm
11:10 AM 52.2°F11.2°C 41.5°F5.3°C 67% 5.0 mph WNW8.0 kmh WNW 14.0 mph22.5 kmh 30.09 in1019.0 mb 0.00 in0.0 mm 0.00 in0.0 mm 0.17 in4.3 mm
11:05 AM 52.3°F11.3°C 41.7°F5.4°C 67% 6.0 mph NW9.7 kmh NW 16.0 mph25.7 kmh 30.09 in1019.0 mb 0.00 in0.0 mm 0.00 in0.0 mm 0.17 in4.3 mm
11:00 AM 52.0°F11.1°C 41.4°F5.2°C 67% 8.0 mph NW12.9 kmh NW 19.0 mph30.6 kmh 30.09 in1019.0 mb 0.00 in0.0 mm 0.00 in0.0 mm 0.17 in4.3 mm
10:55 AM 52.2°F11.2°C 41.5°F5.3°C 67% 8.0 mph NW12.9 kmh NW 20.0 mph32.2 kmh 30.08 in1018.6 mb 0.00 in0.0 mm 0.00 in0.0 mm 0.17 in4.3 mm
10:50 AM 52.3°F11.3°C 41.7°F5.4°C 67% 7.0 mph NW11.3 kmh NW 20.0 mph32.2 kmh 30.08 in1018.6 mb 0.00 in0.0 mm 0.00 in0.0 mm 0.17 in4.3 mm
10:45 AM 52.2°F11.2°C 41.9°F5.5°C 68% 6.0 mph NW9.7 kmh NW 19.0 mph30.6 kmh 30.08 in1018.6 mb 0.00 in0.0 mm 0.00 in0.0 mm 0.17 in4.3 mm
10:40 AM 52.3°F11.3°C 42.1°F5.6°C 68% 7.0 mph NW11.3 kmh NW 18.0 mph29.0 kmh 30.08 in1018.6 mb 0.00 in0.0 mm 0.00 in0.0 mm 0.17 in4.3 mm
10:35 AM 51.8°F11.0°C 42.3°F5.7°C 70% 7.0 mph NW11.3 kmh NW 18.0 mph29.0 kmh 30.07 in1018.3 mb 0.00 in0.0 mm 0.00 in0.0 mm 0.17 in4.3 mm
10:30 AM 51.4°F10.8°C 42.6°F5.9°C 72% 5.0 mph NW8.0 kmh NW 16.0 mph25.7 kmh 30.08 in1018.6 mb 0.00 in0.0 mm 0.00 in0.0 mm 0.17 in4.3 mm
10:25 AM 51.3°F10.7°C 42.4°F5.8°C 72% 5.0 mph NW8.0 kmh NW 17.0 mph27.4 kmh 30.07 in1018.3 mb 0.00 in0.0 mm 0.00 in0.0 mm 0.17 in4.3 mm
10:20 AM 50.7°F10.4°C 42.4°F5.8°C 73% 6.0 mph NW9.7 kmh NW 22.0 mph35.4 kmh 30.07 in1018.3 mb 0.00 in0.0 mm 0.00 in0.0 mm 0.17 in4.3 mm
10:15 AM 50.5°F10.3°C 41.7°F5.4°C 72% 6.0 mph NW9.7 kmh NW 23.0 mph37.0 kmh 30.07 in1018.3 mb 0.00 in0.0 mm 0.00 in0.0 mm 0.17 in4.3 mm
10:10 AM 50.7°F10.4°C 42.8°F6.0°C 74% 5.0 mph NW8.0 kmh NW 23.0 mph37.0 kmh 30.07 in1018.3 mb 0.00 in0.0 mm 0.00 in0.0 mm 0.17 in4.3 mm
10:05 AM 50.2°F10.1°C 43.0°F6.1°C 76% 6.0 mph NW9.7 kmh NW 19.0 mph30.6 kmh 30.07 in1018.3 mb 0.00 in0.0 mm 0.00 in0.0 mm 0.17 in4.3 mm
10:00 AM 50.2°F10.1°C 42.8°F6.0°C 76% 5.0 mph NW8.0 kmh NW 19.0 mph30.6 kmh 30.07 in1018.3 mb 0.00 in0.0 mm 0.00 in0.0 mm 0.17 in4.3 mm
09:55 AM 50.2°F10.1°C 43.5°F6.4°C 78% 4.0 mph NW6.4 kmh NW 11.0 mph17.7 kmh 30.07 in1018.3 mb 0.00 in0.0 mm 0.00 in0.0 mm 0.17 in4.3 mm
09:50 AM 50.4°F10.2°C 43.5°F6.4°C 77% 5.0 mph WNW8.0 kmh WNW 13.0 mph20.9 kmh 30.07 in1018.3 mb 0.00 in0.0 mm 0.00 in0.0 mm 0.17 in4.3 mm
09:45 AM 51.3°F10.7°C 43.5°F6.4°C 75% 6.0 mph NW9.7 kmh NW 17.0 mph27.4 kmh 30.07 in1018.3 mb 0.00 in0.0 mm 0.00 in0.0 mm 0.17 in4.3 mm
09:40 AM 51.1°F10.6°C 43.3°F6.3°C 75% 7.0 mph NW11.3 kmh NW 17.0 mph27.4 kmh 30.06 in1017.9 mb 0.00 in0.0 mm 0.00 in0.0 mm 0.17 in4.3 mm
09:35 AM 50.5°F10.3°C 43.5°F6.4°C 77% 6.0 mph NW9.7 kmh NW 18.0 mph29.0 kmh 30.06 in1017.9 mb 0.00 in0.0 mm 0.00 in0.0 mm 0.17 in4.3 mm
09:30 AM 50.0°F10.0°C 43.3°F6.3°C 78% 6.0 mph NW9.7 kmh NW 18.0 mph29.0 kmh 30.05 in1017.6 mb 0.00 in0.0 mm 0.00 in0.0 mm 0.17 in4.3 mm
09:25 AM 49.6°F9.8°C 44.1°F6.7°C 81% 6.0 mph NW9.7 kmh NW 18.0 mph29.0 kmh 30.06 in1017.9 mb 0.00 in0.0 mm 0.00 in0.0 mm 0.17 in4.3 mm
09:20 AM 49.3°F9.6°C 44.1°F6.7°C 82% 5.0 mph NW8.0 kmh NW 14.0 mph22.5 kmh 30.06 in1017.9 mb 0.00 in0.0 mm 0.00 in0.0 mm 0.17 in4.3 mm
09:15 AM 49.3°F9.6°C 44.1°F6.7°C 82% 6.0 mph NW9.7 kmh NW 14.0 mph22.5 kmh 30.05 in1017.6 mb 0.00 in0.0 mm 0.00 in0.0 mm 0.17 in4.3 mm
09:10 AM 49.6°F9.8°C 44.1°F6.7°C 81% 5.0 mph NW8.0 kmh NW 15.0 mph24.1 kmh 30.04 in1017.3 mb 0.00 in0.0 mm 0.00 in0.0 mm 0.17 in4.3 mm
09:05 AM 49.8°F9.9°C 44.6°F7.0°C 82% 5.0 mph NW8.0 kmh NW 19.0 mph30.6 kmh 30.04 in1017.3 mb 0.00 in0.0 mm 0.00 in0.0 mm 0.17 in4.3 mm
09:00 AM 49.3°F9.6°C 43.7°F6.5°C 81% 6.0 mph NW9.7 kmh NW 19.0 mph30.6 kmh 30.04 in1017.3 mb 0.00 in0.0 mm 0.00 in0.0 mm 0.17 in4.3 mm
08:55 AM 49.3°F9.6°C 44.4°F6.9°C 83% 5.0 mph NW8.0 kmh NW 15.0 mph24.1 kmh 30.04 in1017.3 mb 0.00 in0.0 mm 0.00 in0.0 mm 0.17 in4.3 mm
08:50 AM 48.7°F9.3°C 44.4°F6.9°C 85% 7.0 mph NW11.3 kmh NW 25.0 mph40.2 kmh 30.03 in1016.9 mb 0.00 in0.0 mm 0.00 in0.0 mm 0.17 in4.3 mm
08:45 AM 48.0°F8.9°C 43.5°F6.4°C 84% 6.0 mph NW9.7 kmh NW 25.0 mph40.2 kmh 30.03 in1016.9 mb 0.00 in0.0 mm 0.00 in0.0 mm 0.17 in4.3 mm
08:40 AM 48.2°F9.0°C 44.2°F6.8°C 86% 5.0 mph NW8.0 kmh NW 15.0 mph24.1 kmh 30.03 in1016.9 mb 0.01 in0.3 mm 0.00 in0.0 mm 0.17 in4.3 mm
08:35 AM 48.2°F9.0°C 44.6°F7.0°C 87% 5.0 mph NW8.0 kmh NW 18.0 mph29.0 kmh 30.03 in1016.9 mb 0.01 in0.3 mm 0.00 in0.0 mm 0.17 in4.3 mm
08:30 AM 48.0°F8.9°C 44.4°F6.9°C 87% 5.0 mph NW8.0 kmh NW 18.0 mph29.0 kmh 30.02 in1016.6 mb 0.01 in0.3 mm 0.00 in0.0 mm 0.17 in4.3 mm
08:25 AM 48.0°F8.9°C 44.6°F7.0°C 88% 5.0 mph NW8.0 kmh NW 15.0 mph24.1 kmh 30.02 in1016.6 mb 0.01 in0.3 mm 0.00 in0.0 mm 0.17 in4.3 mm
08:20 AM 47.8°F8.8°C 44.8°F7.1°C 89% 5.0 mph NW8.0 kmh NW 13.0 mph20.9 kmh 30.01 in1016.3 mb 0.01 in0.3 mm 0.00 in0.0 mm 0.17 in4.3 mm
08:15 AM 47.5°F8.6°C 44.8°F7.1°C 90% 4.0 mph NW6.4 kmh NW 12.0 mph19.3 kmh 30.01 in1016.3 mb 0.01 in0.3 mm 0.00 in0.0 mm 0.17 in4.3 mm
08:10 AM 47.3°F8.5°C 44.6°F7.0°C 90% 4.0 mph NW6.4 kmh NW 20.0 mph32.2 kmh 30.01 in1016.3 mb 0.01 in0.3 mm 0.00 in0.0 mm 0.17 in4.3 mm
08:05 AM 47.1°F8.4°C 44.6°F7.0°C 91% 5.0 mph NW8.0 kmh NW 20.0 mph32.2 kmh 30.01 in1016.3 mb 0.01 in0.3 mm 0.00 in0.0 mm 0.17 in4.3 mm
08:00 AM 47.1°F8.4°C 45.0°F7.2°C 92% 4.0 mph NW6.4 kmh NW 12.0 mph19.3 kmh 30.00 in1015.9 mb 0.01 in0.3 mm 0.00 in0.0 mm 0.17 in4.3 mm
07:55 AM 46.9°F8.3°C 45.1°F7.3°C 93% 3.0 mph NW4.8 kmh NW 13.0 mph20.9 kmh 30.01 in1016.3 mb 0.01 in0.3 mm 0.00 in0.0 mm 0.17 in4.3 mm
07:50 AM 46.8°F8.2°C 45.0°F7.2°C 93% 3.0 mph NW4.8 kmh NW 13.0 mph20.9 kmh 30.00 in1015.9 mb 0.01 in0.3 mm 0.00 in0.0 mm 0.17 in4.3 mm
07:45 AM 46.8°F8.2°C 44.4°F6.9°C 92% 2.0 mph NW3.2 kmh NW 9.0 mph14.5 kmh 30.00 in1015.9 mb 0.01 in0.3 mm 0.00 in0.0 mm 0.17 in4.3 mm
07:40 AM 46.8°F8.2°C 44.6°F7.0°C 92% 2.0 mph NW3.2 kmh NW 10.0 mph16.1 kmh 30.00 in1015.9 mb 0.01 in0.3 mm 0.00 in0.0 mm 0.16 in4.1 mm
07:35 AM 46.8°F8.2°C 44.4°F6.9°C 92% 3.0 mph NW4.8 kmh NW 12.0 mph19.3 kmh 29.99 in1015.6 mb 0.01 in0.3 mm 0.00 in0.0 mm 0.16 in4.1 mm
07:30 AM 46.8°F8.2°C 44.4°F6.9°C 92% 2.0 mph NW3.2 kmh NW 12.0 mph19.3 kmh 29.99 in1015.6 mb 0.02 in0.5 mm 0.00 in0.0 mm 0.16 in4.1 mm
07:25 AM 46.8°F8.2°C 44.4°F6.9°C 92% 2.0 mph NW3.2 kmh NW 9.0 mph14.5 kmh 29.98 in1015.2 mb 0.02 in0.5 mm 0.00 in0.0 mm 0.16 in4.1 mm
07:20 AM 46.6°F8.1°C 44.6°F7.0°C 93% 3.0 mph NW4.8 kmh NW 9.0 mph14.5 kmh 29.97 in1014.9 mb 0.02 in0.5 mm 0.00 in0.0 mm 0.16 in4.1 mm
07:15 AM 46.4°F8.0°C 44.4°F6.9°C 93% 3.0 mph NW4.8 kmh NW 13.0 mph20.9 kmh 29.97 in1014.9 mb 0.02 in0.5 mm 0.00 in0.0 mm 0.16 in4.1 mm
07:10 AM 46.2°F7.9°C 44.4°F6.9°C 93% 4.0 mph NW6.4 kmh NW 17.0 mph27.4 kmh 29.97 in1014.9 mb 0.02 in0.5 mm 0.00 in0.0 mm 0.16 in4.1 mm
07:05 AM 46.2°F7.9°C 44.4°F6.9°C 93% 4.0 mph NW6.4 kmh NW 17.0 mph27.4 kmh 29.96 in1014.6 mb 0.02 in0.5 mm 0.00 in0.0 mm 0.16 in4.1 mm
07:00 AM 46.2°F7.9°C 44.6°F7.0°C 94% 3.0 mph NW4.8 kmh NW 9.0 mph14.5 kmh 29.96 in1014.6 mb 0.02 in0.5 mm 0.00 in0.0 mm 0.16 in4.1 mm
06:55 AM 46.0°F7.8°C 44.4°F6.9°C 94% 2.0 mph NW3.2 kmh NW 8.0 mph12.9 kmh 29.95 in1014.2 mb 0.02 in0.5 mm 0.00 in0.0 mm 0.16 in4.1 mm
06:50 AM 46.0°F7.8°C 44.2°F6.8°C 93% 2.0 mph NW3.2 kmh NW 9.0 mph14.5 kmh 29.95 in1014.2 mb 0.02 in0.5 mm 0.00 in0.0 mm 0.16 in4.1 mm
06:45 AM 46.0°F7.8°C 44.2°F6.8°C 93% 2.0 mph NW3.2 kmh NW 9.0 mph14.5 kmh 29.95 in1014.2 mb 0.02 in0.5 mm 0.12 in3.0 mm 0.16 in4.1 mm
06:40 AM 46.0°F7.8°C 44.2°F6.8°C 93% 2.0 mph NW3.2 kmh NW 8.0 mph12.9 kmh 29.95 in1014.2 mb 0.01 in0.3 mm 0.00 in0.0 mm 0.15 in3.8 mm
06:35 AM 46.0°F7.8°C 44.2°F6.8°C 93% 2.0 mph NW3.2 kmh NW 8.0 mph12.9 kmh 29.94 in1013.9 mb 0.01 in0.3 mm 0.12 in3.0 mm 0.15 in3.8 mm
06:30 AM 46.0°F7.8°C 44.1°F6.7°C 93% 3.0 mph NW4.8 kmh NW 9.0 mph14.5 kmh 29.95 in1014.2 mb 0.00 in0.0 mm 0.00 in0.0 mm 0.14 in3.6 mm
06:25 AM 46.0°F7.8°C 44.1°F6.7°C 93% 3.0 mph NW4.8 kmh NW 12.0 mph19.3 kmh 29.94 in1013.9 mb 0.00 in0.0 mm 0.00 in0.0 mm 0.14 in3.6 mm
06:20 AM 45.9°F7.7°C 44.1°F6.7°C 93% 3.0 mph NW4.8 kmh NW 12.0 mph19.3 kmh 29.94 in1013.9 mb 0.00 in0.0 mm 0.00 in0.0 mm 0.14 in3.6 mm
06:15 AM 45.9°F7.7°C 43.7°F6.5°C 92% 3.0 mph NW4.8 kmh NW 11.0 mph17.7 kmh 29.94 in1013.9 mb 0.00 in0.0 mm 0.00 in0.0 mm 0.14 in3.6 mm
06:10 AM 45.9°F7.7°C 43.7°F6.5°C 92% 2.0 mph NW3.2 kmh NW 11.0 mph17.7 kmh 29.94 in1013.9 mb 0.00 in0.0 mm 0.00 in0.0 mm 0.14 in3.6 mm
06:05 AM 45.9°F7.7°C 43.7°F6.5°C 92% 2.0 mph NW3.2 kmh NW 11.0 mph17.7 kmh 29.93 in1013.5 mb 0.00 in0.0 mm 0.00 in0.0 mm 0.14 in3.6 mm
06:00 AM 46.0°F7.8°C 43.9°F6.6°C 92% 3.0 mph NW4.8 kmh NW 13.0 mph20.9 kmh 29.93 in1013.5 mb 0.00 in0.0 mm 0.00 in0.0 mm 0.14 in3.6 mm
05:55 AM 46.0°F7.8°C 43.9°F6.6°C 92% 3.0 mph NW4.8 kmh NW 13.0 mph20.9 kmh 29.93 in1013.5 mb 0.00 in0.0 mm 0.00 in0.0 mm 0.14 in3.6 mm
05:50 AM 46.0°F7.8°C 43.9°F6.6°C 92% 3.0 mph NW4.8 kmh NW 15.0 mph24.1 kmh 29.93 in1013.5 mb 0.00 in0.0 mm 0.00 in0.0 mm 0.14 in3.6 mm
05:45 AM 45.9°F7.7°C 43.7°F6.5°C 92% 4.0 mph NW6.4 kmh NW 15.0 mph24.1 kmh 29.92 in1013.2 mb 0.00 in0.0 mm 0.00 in0.0 mm 0.14 in3.6 mm
05:40 AM 45.9°F7.7°C 43.7°F6.5°C 92% 3.0 mph NW4.8 kmh NW 10.0 mph16.1 kmh 29.92 in1013.2 mb 0.00 in0.0 mm 0.00 in0.0 mm 0.14 in3.6 mm
05:35 AM 45.9°F7.7°C 43.7°F6.5°C 92% 3.0 mph NW4.8 kmh NW 14.0 mph22.5 kmh 29.91 in1012.9 mb 0.00 in0.0 mm 0.00 in0.0 mm 0.14 in3.6 mm
05:30 AM 45.9°F7.7°C 43.5°F6.4°C 92% 3.0 mph NW4.8 kmh NW 14.0 mph22.5 kmh 29.91 in1012.9 mb 0.00 in0.0 mm 0.00 in0.0 mm 0.14 in3.6 mm
05:25 AM 45.9°F7.7°C 43.7°F6.5°C 92% 3.0 mph NW4.8 kmh NW 12.0 mph19.3 kmh 29.91 in1012.9 mb 0.00 in0.0 mm 0.00 in0.0 mm 0.14 in3.6 mm
05:20 AM 45.9°F7.7°C 43.3°F6.3°C 91% 4.0 mph NW6.4 kmh NW 12.0 mph19.3 kmh 29.91 in1012.9 mb 0.00 in0.0 mm 0.00 in0.0 mm 0.14 in3.6 mm
05:15 AM 46.0°F7.8°C 43.5°F6.4°C 91% 4.0 mph NW6.4 kmh NW 11.0 mph17.7 kmh 29.91 in1012.9 mb 0.00 in0.0 mm 0.00 in0.0 mm 0.14 in3.6 mm
05:10 AM 46.0°F7.8°C 43.7°F6.5°C 91% 4.0 mph NW6.4 kmh NW 11.0 mph17.7 kmh 29.91 in1012.9 mb 0.00 in0.0 mm 0.00 in0.0 mm 0.14 in3.6 mm
05:05 AM 46.0°F7.8°C 43.3°F6.3°C 90% 3.0 mph NW4.8 kmh NW 14.0 mph22.5 kmh 29.90 in1012.5 mb 0.00 in0.0 mm 0.00 in0.0 mm 0.14 in3.6 mm
05:00 AM 46.0°F7.8°C 43.3°F6.3°C 90% 2.0 mph NW3.2 kmh NW 14.0 mph22.5 kmh 29.90 in1012.5 mb 0.00 in0.0 mm 0.00 in0.0 mm 0.14 in3.6 mm
04:55 AM 46.0°F7.8°C 43.2°F6.2°C 90% 3.0 mph NW4.8 kmh NW 9.0 mph14.5 kmh 29.91 in1012.9 mb 0.00 in0.0 mm 0.00 in0.0 mm 0.14 in3.6 mm
04:50 AM 46.0°F7.8°C 43.2°F6.2°C 90% 3.0 mph NW4.8 kmh NW 12.0 mph19.3 kmh 29.90 in1012.5 mb 0.00 in0.0 mm 0.00 in0.0 mm 0.14 in3.6 mm
04:45 AM 45.9°F7.7°C 43.2°F6.2°C 90% 3.0 mph NW4.8 kmh NW 17.0 mph27.4 kmh 29.90 in1012.5 mb 0.00 in0.0 mm 0.00 in0.0 mm 0.14 in3.6 mm
04:40 AM 45.9°F7.7°C 43.2°F6.2°C 90% 4.0 mph NW6.4 kmh NW 17.0 mph27.4 kmh 29.90 in1012.5 mb 0.00 in0.0 mm 0.00 in0.0 mm 0.14 in3.6 mm
04:35 AM 45.9°F7.7°C 43.0°F6.1°C 90% 4.0 mph NW6.4 kmh NW 12.0 mph19.3 kmh 29.90 in1012.5 mb 0.00 in0.0 mm 0.00 in0.0 mm 0.14 in3.6 mm
04:30 AM 45.9°F7.7°C 43.0°F6.1°C 90% 5.0 mph NW8.0 kmh NW 12.0 mph19.3 kmh 29.90 in1012.5 mb 0.00 in0.0 mm 0.00 in0.0 mm 0.14 in3.6 mm
04:25 AM 45.9°F7.7°C 43.0°F6.1°C 90% 4.0 mph NW6.4 kmh NW 14.0 mph22.5 kmh 29.89 in1012.2 mb 0.00 in0.0 mm 0.00 in0.0 mm 0.14 in3.6 mm
04:20 AM 45.9°F7.7°C 43.0°F6.1°C 90% 4.0 mph NW6.4 kmh NW 14.0 mph22.5 kmh 29.90 in1012.5 mb 0.00 in0.0 mm 0.00 in0.0 mm 0.14 in3.6 mm
04:15 AM 45.9°F7.7°C 43.0°F6.1°C 90% 4.0 mph NW6.4 kmh NW 11.0 mph17.7 kmh 29.89 in1012.2 mb 0.00 in0.0 mm 0.00 in0.0 mm 0.14 in3.6 mm
04:10 AM 45.9°F7.7°C 43.0°F6.1°C 90% 4.0 mph NW6.4 kmh NW 13.0 mph20.9 kmh 29.89 in1012.2 mb 0.00 in0.0 mm 0.00 in0.0 mm 0.14 in3.6 mm
04:05 AM 45.9°F7.7°C 42.8°F6.0°C 89% 5.0 mph NW8.0 kmh NW 16.0 mph25.7 kmh 29.89 in1012.2 mb 0.00 in0.0 mm 0.00 in0.0 mm 0.14 in3.6 mm
04:00 AM 45.9°F7.7°C 42.8°F6.0°C 89% 7.0 mph NW11.3 kmh NW 18.0 mph29.0 kmh 29.88 in1011.9 mb 0.00 in0.0 mm 0.00 in0.0 mm 0.14 in3.6 mm
03:55 AM 45.9°F7.7°C 42.4°F5.8°C 88% 8.0 mph NW12.9 kmh NW 19.0 mph30.6 kmh 29.86 in1011.2 mb 0.00 in0.0 mm 0.00 in0.0 mm 0.14 in3.6 mm
03:50 AM 45.9°F7.7°C 42.8°F6.0°C 89% 8.0 mph NW12.9 kmh NW 20.0 mph32.2 kmh 29.86 in1011.2 mb 0.01 in0.3 mm 0.00 in0.0 mm 0.14 in3.6 mm
03:45 AM 46.0°F7.8°C 43.2°F6.2°C 90% 8.0 mph NW12.9 kmh NW 22.0 mph35.4 kmh 29.86 in1011.2 mb 0.01 in0.3 mm 0.00 in0.0 mm 0.14 in3.6 mm
03:40 AM 46.0°F7.8°C 43.3°F6.3°C 90% 8.0 mph NW12.9 kmh NW 22.0 mph35.4 kmh 29.84 in1010.5 mb 0.01 in0.3 mm 0.00 in0.0 mm 0.14 in3.6 mm
03:35 AM 46.2°F7.9°C 43.5°F6.4°C 90% 8.0 mph NW12.9 kmh NW 19.0 mph30.6 kmh 29.83 in1010.2 mb 0.01 in0.3 mm 0.00 in0.0 mm 0.14 in3.6 mm
03:30 AM 46.6°F8.1°C 43.7°F6.5°C 90% 7.0 mph NW11.3 kmh NW 19.0 mph30.6 kmh 29.82 in1009.8 mb 0.01 in0.3 mm 0.00 in0.0 mm 0.14 in3.6 mm
03:25 AM 46.6°F8.1°C 44.1°F6.7°C 91% 8.0 mph NW12.9 kmh NW 21.0 mph33.8 kmh 29.80 in1009.1 mb 0.01 in0.3 mm 0.00 in0.0 mm 0.14 in3.6 mm
03:20 AM 46.8°F8.2°C 43.9°F6.6°C 90% 10.0 mph NW16.1 kmh NW 21.0 mph33.8 kmh 29.79 in1008.8 mb 0.01 in0.3 mm 0.00 in0.0 mm 0.14 in3.6 mm
03:15 AM 46.8°F8.2°C 44.2°F6.8°C 91% 9.0 mph NW14.5 kmh NW 21.0 mph33.8 kmh 29.79 in1008.8 mb 0.01 in0.3 mm 0.00 in0.0 mm 0.14 in3.6 mm
03:10 AM 46.9°F8.3°C 44.4°F6.9°C 91% 8.0 mph NW12.9 kmh NW 21.0 mph33.8 kmh 29.78 in1008.5 mb 0.01 in0.3 mm 0.00 in0.0 mm 0.14 in3.6 mm
03:05 AM 47.1°F8.4°C 45.0°F7.2°C 92% 8.0 mph NW12.9 kmh NW 18.0 mph29.0 kmh 29.78 in1008.5 mb 0.01 in0.3 mm 0.00 in0.0 mm 0.14 in3.6 mm
03:00 AM 47.5°F8.6°C 45.1°F7.3°C 92% 7.0 mph NW11.3 kmh NW 17.0 mph27.4 kmh 29.77 in1008.1 mb 0.01 in0.3 mm 0.00 in0.0 mm 0.14 in3.6 mm
02:55 AM 47.7°F8.7°C 45.5°F7.5°C 92% 6.0 mph NW9.7 kmh NW 14.0 mph22.5 kmh 29.77 in1008.1 mb 0.01 in0.3 mm 0.00 in0.0 mm 0.14 in3.6 mm
02:50 AM 48.0°F8.9°C 45.9°F7.7°C 92% 6.0 mph NW9.7 kmh NW 20.0 mph32.2 kmh 29.77 in1008.1 mb 0.01 in0.3 mm 0.00 in0.0 mm 0.13 in3.3 mm
02:45 AM 48.0°F8.9°C 45.9°F7.7°C 92% 5.0 mph NW8.0 kmh NW 20.0 mph32.2 kmh 29.76 in1007.8 mb 0.01 in0.3 mm 0.00 in0.0 mm 0.13 in3.3 mm
02:40 AM 48.4°F9.1°C 46.0°F7.8°C 92% 7.0 mph NW11.3 kmh NW 17.0 mph27.4 kmh 29.76 in1007.8 mb 0.01 in0.3 mm 0.00 in0.0 mm 0.13 in3.3 mm
02:35 AM 48.6°F9.2°C 46.0°F7.8°C 91% 8.0 mph NW12.9 kmh NW 21.0 mph33.8 kmh 29.75 in1007.5 mb 0.01 in0.3 mm 0.00 in0.0 mm 0.13 in3.3 mm
02:30 AM 48.7°F9.3°C 46.2°F7.9°C 91% 9.0 mph NW14.5 kmh NW 29.0 mph46.7 kmh 29.73 in1006.8 mb 0.01 in0.3 mm 0.00 in0.0 mm 0.13 in3.3 mm
02:25 AM 48.9°F9.4°C 46.4°F8.0°C 91% 11.0 mph NW17.7 kmh NW 29.0 mph46.7 kmh 29.73 in1006.8 mb 0.01 in0.3 mm 0.00 in0.0 mm 0.13 in3.3 mm
02:20 AM 49.5°F9.7°C 46.9°F8.3°C 91% 11.0 mph NW17.7 kmh NW 28.0 mph45.1 kmh 29.72 in1006.4 mb 0.01 in0.3 mm 0.00 in0.0 mm 0.13 in3.3 mm
02:15 AM 49.8°F9.9°C 47.3°F8.5°C 91% 11.0 mph NW17.7 kmh NW 26.0 mph41.8 kmh 29.71 in1006.1 mb 0.01 in0.3 mm 0.00 in0.0 mm 0.13 in3.3 mm
02:10 AM 50.2°F10.1°C 47.7°F8.7°C 91% 11.0 mph NW17.7 kmh NW 26.0 mph41.8 kmh 29.70 in1005.8 mb 0.08 in2.0 mm 0.00 in0.0 mm 0.13 in3.3 mm
02:05 AM 51.3°F10.7°C 49.1°F9.5°C 92% 9.0 mph NW14.5 kmh NW 24.0 mph38.6 kmh 29.70 in1005.8 mb 0.08 in2.0 mm 0.00 in0.0 mm 0.13 in3.3 mm
02:00 AM 52.0°F11.1°C 49.6°F9.8°C 92% 7.0 mph NW11.3 kmh NW 20.0 mph32.2 kmh 29.68 in1005.1 mb 0.08 in2.0 mm 0.00 in0.0 mm 0.13 in3.3 mm
01:55 AM 52.3°F11.3°C 50.4°F10.2°C 93% 7.0 mph NW11.3 kmh NW 20.0 mph32.2 kmh 29.66 in1004.4 mb 0.08 in2.0 mm 0.12 in3.0 mm 0.13 in3.3 mm
01:50 AM 52.7°F11.5°C 50.7°F10.4°C 93% 7.0 mph NW11.3 kmh NW 21.0 mph33.8 kmh 29.65 in1004.1 mb 0.07 in1.8 mm 0.00 in0.0 mm 0.13 in3.3 mm
01:45 AM 52.9°F11.6°C 50.7°F10.4°C 92% 6.0 mph NW9.7 kmh NW 21.0 mph33.8 kmh 29.63 in1003.4 mb 0.07 in1.8 mm 0.00 in0.0 mm 0.13 in3.3 mm
01:40 AM 53.2°F11.8°C 51.1°F10.6°C 92% 5.0 mph WNW8.0 kmh WNW 17.0 mph27.4 kmh 29.62 in1003.0 mb 0.07 in1.8 mm 0.00 in0.0 mm 0.13 in3.3 mm
01:35 AM 54.0°F12.2°C 51.6°F10.9°C 92% 5.0 mph WNW8.0 kmh WNW 17.0 mph27.4 kmh 29.61 in1002.7 mb 0.07 in1.8 mm 0.00 in0.0 mm 0.13 in3.3 mm
01:30 AM 54.7°F12.6°C 52.2°F11.2°C 91% 5.0 mph WNW8.0 kmh WNW 17.0 mph27.4 kmh 29.60 in1002.4 mb 0.07 in1.8 mm 0.00 in0.0 mm 0.13 in3.3 mm
01:25 AM 55.8°F13.2°C 53.1°F11.7°C 91% 5.0 mph NW8.0 kmh NW 14.0 mph22.5 kmh 29.59 in1002.0 mb 0.07 in1.8 mm 0.00 in0.0 mm 0.13 in3.3 mm
01:20 AM 57.0°F13.9°C 54.5°F12.5°C 91% 8.0 mph WSW12.9 kmh WSW 24.0 mph38.6 kmh 29.59 in1002.0 mb 0.08 in2.0 mm 0.12 in3.0 mm 0.13 in3.3 mm
01:15 AM 58.3°F14.6°C 55.9°F13.3°C 92% 10.0 mph SW16.1 kmh SW 24.0 mph38.6 kmh 29.57 in1001.4 mb 0.07 in1.8 mm 0.72 in18.3 mm 0.12 in3.0 mm
01:10 AM 58.3°F14.6°C 55.9°F13.3°C 92% 11.0 mph SW17.7 kmh SW 18.0 mph29.0 kmh 29.55 in1000.7 mb 0.01 in0.3 mm 0.00 in0.0 mm 0.06 in1.5 mm
01:05 AM 58.3°F14.6°C 55.9°F13.3°C 92% 11.0 mph SW17.7 kmh SW 18.0 mph29.0 kmh 29.54 in1000.3 mb 0.01 in0.3 mm 0.00 in0.0 mm 0.06 in1.5 mm
01:00 AM 58.3°F14.6°C 55.9°F13.3°C 92% 11.0 mph SW17.7 kmh SW 25.0 mph40.2 kmh 29.54 in1000.3 mb 0.01 in0.3 mm 0.00 in0.0 mm 0.06 in1.5 mm
12:55 AM 58.3°F14.6°C 55.9°F13.3°C 92% 11.0 mph SW17.7 kmh SW 25.0 mph40.2 kmh 29.54 in1000.3 mb 0.02 in0.5 mm 0.00 in0.0 mm 0.06 in1.5 mm
12:50 AM 58.3°F14.6°C 56.3°F13.5°C 93% 11.0 mph SW17.7 kmh SW 21.0 mph33.8 kmh 29.53 in1000.0 mb 0.02 in0.5 mm 0.00 in0.0 mm 0.06 in1.5 mm
12:45 AM 58.3°F14.6°C 56.1°F13.4°C 93% 11.0 mph SW17.7 kmh SW 22.0 mph35.4 kmh 29.54 in1000.3 mb 0.02 in0.5 mm 0.00 in0.0 mm 0.06 in1.5 mm
12:40 AM 58.1°F14.5°C 56.1°F13.4°C 93% 10.0 mph SW16.1 kmh SW 22.0 mph35.4 kmh 29.53 in1000.0 mb 0.03 in0.8 mm 0.00 in0.0 mm 0.06 in1.5 mm
12:35 AM 57.9°F14.4°C 55.9°F13.3°C 93% 10.0 mph SW16.1 kmh SW 19.0 mph30.6 kmh 29.53 in1000.0 mb 0.04 in1.0 mm 0.00 in0.0 mm 0.06 in1.5 mm
12:30 AM 58.1°F14.5°C 56.1°F13.4°C 93% 10.0 mph SW16.1 kmh SW 19.0 mph30.6 kmh 29.52 in999.7 mb 0.05 in1.3 mm 0.00 in0.0 mm 0.06 in1.5 mm
12:25 AM 58.1°F14.5°C 56.1°F13.4°C 93% 10.0 mph SW16.1 kmh SW 19.0 mph30.6 kmh 29.51 in999.3 mb 0.05 in1.3 mm 0.00 in0.0 mm 0.06 in1.5 mm
12:20 AM 58.1°F14.5°C 56.1°F13.4°C 93% 10.0 mph SW16.1 kmh SW 20.0 mph32.2 kmh 29.52 in999.7 mb 0.05 in1.3 mm 0.00 in0.0 mm 0.05 in1.3 mm
12:15 AM 58.1°F14.5°C 56.1°F13.4°C 93% 10.0 mph SW16.1 kmh SW 22.0 mph35.4 kmh 29.53 in1000.0 mb 0.05 in1.3 mm 0.00 in0.0 mm 0.05 in1.3 mm
12:10 AM 58.1°F14.5°C 56.1°F13.4°C 93% 11.0 mph SW17.7 kmh SW 22.0 mph35.4 kmh 29.53 in1000.0 mb 0.05 in1.3 mm 0.00 in0.0 mm 0.05 in1.3 mm
12:05 AM 57.9°F14.4°C 55.9°F13.3°C 93% 10.0 mph SW16.1 kmh SW 22.0 mph35.4 kmh 29.52 in999.7 mb 0.05 in1.3 mm 0.00 in0.0 mm 0.05 in1.3 mm
12:00 AM 57.9°F14.4°C 55.9°F13.3°C 93% 9.0 mph SW14.5 kmh SW 17.0 mph27.4 kmh 29.53 in1000.0 mb 0.05 in1.3 mm 0.00 in0.0 mm 0.05 in1.3 mm